Time;durP1;ratioP1;P1;durP2;ratioP2;P2;SDS_P1;SDS_P2;PMS_P1;PMS_P2;Temp;Humidity;BMP_temperature;BMP_pressure;BME280_temperature;BME280_humidity;BME280_pressure;Samples;Min_cycle;Max_cycle;Signal;HPM_P1;HPM_P2
2024/04/16 00:01:43;;;;;;;40.75;37.95;;;;;;;;;;5420264;26;19996;-57
2024/04/16 00:04:09;;;;;;;41.10;38.35;;;;;;;;;;5419253;26;20487;-58
2024/04/16 00:06:36;;;;;;;40.42;37.72;;;;;;;;;;5421347;26;20453;-55
2024/04/16 00:09:02;;;;;;;41.58;38.78;;;;;;;;;;5421022;26;20027;-55
2024/04/16 00:11:28;;;;;;;39.45;36.75;;;;;;;;;;5420829;26;19999;-58
2024/04/16 00:13:54;;;;;;;39.58;36.88;;;;;;;;;;5420192;26;19995;-59
2024/04/16 00:16:20;;;;;;;39.25;36.55;;;;;;;;;;5420324;26;20003;-55
2024/04/16 00:18:46;;;;;;;37.70;35.00;;;;;;;;;;5420532;26;19991;-54
2024/04/16 00:21:12;;;;;;;37.60;35.00;;;;;;;;;;5420412;26;19995;-56
2024/04/16 00:23:38;;;;;;;37.03;34.42;;;;;;;;;;5419540;26;19996;-57
2024/04/16 00:26:04;;;;;;;38.63;35.92;;;;;;;;;;5420086;26;19995;-56
2024/04/16 00:28:30;;;;;;;39.95;37.25;;;;;;;;;;5419019;26;20320;-56
2024/04/16 00:30:56;;;;;;;36.45;33.85;;;;;;;;;;5421025;26;20003;-55
2024/04/16 00:33:22;;;;;;;36.00;33.42;;;;;;;;;;5420587;26;20321;-56
2024/04/16 00:35:48;;;;;;;36.28;33.67;;;;;;;;;;5420090;26;20011;-58
2024/04/16 00:38:14;;;;;;;35.00;32.50;;;;;;;;;;5419860;26;20011;-56
2024/04/16 00:40:40;;;;;;;34.60;32.10;;;;;;;;;;5420125;26;20006;-52
2024/04/16 00:43:16;;;;;;;34.55;32.05;;;;;;;;;;5420876;26;20014;-57
2024/04/16 00:45:46;;;;;;;34.72;32.22;;;;;;;;;;5421212;26;19995;-59
2024/04/16 00:48:12;;;;;;;34.70;32.20;;;;;;;;;;5417832;26;20003;-57
2024/04/16 00:50:38;;;;;;;33.78;31.27;;;;;;;;;;5417824;26;20427;-59
2024/04/16 00:53:04;;;;;;;33.67;31.17;;;;;;;;;;5419067;26;19995;-58
2024/04/16 00:55:30;;;;;;;33.40;30.90;;;;;;;;;;5420239;26;20006;-57
2024/04/16 00:57:56;;;;;;;32.85;30.45;;;;;;;;;;5419966;26;20019;-59
2024/04/16 01:00:22;;;;;;;32.33;29.92;;;;;;;;;;5420370;26;20342;-58
2024/04/16 01:02:48;;;;;;;32.25;29.85;;;;;;;;;;5420122;26;20042;-59
2024/04/16 01:05:14;;;;;;;31.98;29.58;;;;;;;;;;5420133;26;20056;-56
2024/04/16 01:07:40;;;;;;;32.50;30.10;;;;;;;;;;5417425;26;19999;-57
2024/04/16 01:10:06;;;;;;;32.55;30.15;;;;;;;;;;5418981;26;20407;-57
2024/04/16 01:12:40;;;;;;;32.22;29.83;;;;;;;;;;5419433;26;20027;-58
2024/04/16 01:15:06;;;;;;;32.00;29.60;;;;;;;;;;5419166;26;20056;-58
2024/04/16 01:17:33;;;;;;;31.55;29.15;;;;;;;;;;5419153;26;19995;-57
2024/04/16 01:19:59;;;;;;;31.60;29.20;;;;;;;;;;5420470;26;20054;-59
2024/04/16 01:22:25;;;;;;;31.95;29.55;;;;;;;;;;5418990;26;19995;-59
2024/04/16 01:24:51;;;;;;;31.40;29.00;;;;;;;;;;5418886;26;20003;-57
2024/04/16 01:27:17;;;;;;;31.65;29.25;;;;;;;;;;5419375;26;19999;-58
2024/04/16 01:29:43;;;;;;;31.50;29.10;;;;;;;;;;5418906;26;20076;-57
2024/04/16 01:32:09;;;;;;;31.05;28.75;;;;;;;;;;5420190;26;20000;-58
2024/04/16 01:34:35;;;;;;;31.10;28.80;;;;;;;;;;5419090;26;20678;-57
2024/04/16 01:37:01;;;;;;;31.40;29.10;;;;;;;;;;5420105;26;19987;-57
2024/04/16 01:39:27;;;;;;;31.67;29.30;;;;;;;;;;5418225;26;19999;-59
2024/04/16 01:41:53;;;;;;;31.50;29.20;;;;;;;;;;5418623;26;19999;-56
2024/04/16 01:44:19;;;;;;;31.30;29.00;;;;;;;;;;5418729;26;20438;-58
2024/04/16 01:46:45;;;;;;;30.83;28.52;;;;;;;;;;5419540;26;20005;-59
2024/04/16 01:49:11;;;;;;;29.15;26.95;;;;;;;;;;5419246;26;20084;-56
2024/04/16 01:51:37;;;;;;;29.02;26.83;;;;;;;;;;5417600;26;20035;-58
2024/04/16 01:54:03;;;;;;;28.80;26.60;;;;;;;;;;5418863;26;19995;-54
2024/04/16 01:56:29;;;;;;;28.65;26.45;;;;;;;;;;5418828;26;20004;-58
2024/04/16 01:58:55;;;;;;;28.25;26.15;;;;;;;;;;5419851;26;20032;-54
2024/04/16 02:01:21;;;;;;;28.05;25.95;;;;;;;;;;5419668;26;20003;-58
2024/04/16 02:03:47;;;;;;;27.80;25.70;;;;;;;;;;5419097;26;19991;-59
2024/04/16 02:06:12;;;;;;;27.83;25.73;;;;;;;;;;5419293;26;20477;-58
2024/04/16 02:08:38;;;;;;;28.40;26.20;;;;;;;;;;5418642;26;19995;-56
2024/04/16 02:11:05;;;;;;;27.35;25.25;;;;;;;;;;5418852;26;20058;-59
2024/04/16 02:13:31;;;;;;;27.80;25.60;;;;;;;;;;5419163;26;19991;-57
2024/04/16 02:15:57;;;;;;;27.02;24.92;;;;;;;;;;5418056;26;20007;-57
2024/04/16 02:18:23;;;;;;;25.90;23.80;;;;;;;;;;5418690;26;20114;-57
2024/04/16 02:20:49;;;;;;;24.23;22.23;;;;;;;;;;5419217;26;19987;-54
2024/04/16 02:23:15;;;;;;;21.92;20.02;;;;;;;;;;5419228;26;19998;-58
2024/04/16 02:25:47;;;;;;;27.25;20.00;;;;;;;;;;5418435;26;20468;-59
2024/04/16 02:28:13;;;;;;;18.00;16.20;;;;;;;;;;5419268;26;19995;-58
2024/04/16 02:30:39;;;;;;;15.30;13.60;;;;;;;;;;5419109;26;20452;-56
2024/04/16 02:33:05;;;;;;;15.88;14.07;;;;;;;;;;5418897;26;20012;-59
2024/04/16 02:35:34;;;;;;;14.88;12.20;;;;;;;;;;5418638;26;20004;-56
2024/04/16 02:38:00;;;;;;;14.75;11.80;;;;;;;;;;5418645;26;19996;-58
2024/04/16 02:40:26;;;;;;;14.90;12.25;;;;;;;;;;5416896;26;20413;-58
2024/04/16 02:42:52;;;;;;;14.63;11.57;;;;;;;;;;5418212;26;20007;-56
2024/04/16 02:45:20;;;;;;;14.75;11.77;;;;;;;;;;5417812;26;20069;-57
2024/04/16 02:47:46;;;;;;;14.68;11.52;;;;;;;;;;5418497;26;19995;-56
2024/04/16 02:50:12;;;;;;;15.82;12.73;;;;;;;;;;5418788;26;20068;-59
2024/04/16 02:52:38;;;;;;;14.52;11.20;;;;;;;;;;5422336;26;20007;-56
2024/04/16 02:55:04;;;;;;;14.40;11.00;;;;;;;;;;5422199;26;20006;-55
2024/04/16 02:57:30;;;;;;;15.07;11.20;;;;;;;;;;5414138;26;20006;-60
2024/04/16 02:59:56;;;;;;;14.27;10.48;;;;;;;;;;5386770;26;20474;-55
2024/04/16 03:02:22;;;;;;;15.25;11.00;;;;;;;;;;5386735;26;20066;-58
2024/04/16 03:04:48;;;;;;;14.18;10.25;;;;;;;;;;5385060;26;19996;-58
2024/04/16 03:07:14;;;;;;;14.30;10.48;;;;;;;;;;5386624;26;20007;-56
2024/04/16 03:09:40;;;;;;;14.52;10.07;;;;;;;;;;5386882;26;19992;-58
2024/04/16 03:12:06;;;;;;;14.40;10.25;;;;;;;;;;5386135;26;20290;-58
2024/04/16 03:14:32;;;;;;;16.27;11.27;;;;;;;;;;5386304;26;20172;-58
2024/04/16 03:16:59;;;;;;;14.00;9.80;;;;;;;;;;5386230;26;20037;-54
2024/04/16 03:19:25;;;;;;;14.57;10.10;;;;;;;;;;5386286;26;20004;-60
2024/04/16 03:21:51;;;;;;;13.82;9.27;;;;;;;;;;5386856;26;20003;-60
2024/04/16 03:24:17;;;;;;;14.00;9.65;;;;;;;;;;5386194;26;20060;-58
2024/04/16 03:26:43;;;;;;;15.68;11.25;;;;;;;;;;5386133;26;20031;-57
2024/04/16 03:29:09;;;;;;;13.80;9.35;;;;;;;;;;5386383;26;20064;-58
2024/04/16 03:31:35;;;;;;;13.73;9.18;;;;;;;;;;5386395;26;19996;-59
2024/04/16 03:34:01;;;;;;;13.70;8.90;;;;;;;;;;5386487;26;20638;-58
2024/04/16 03:36:27;;;;;;;13.85;9.23;;;;;;;;;;5384057;26;19992;-58
2024/04/16 03:38:53;;;;;;;16.83;9.00;;;;;;;;;;5385710;26;19988;-57
2024/04/16 03:41:21;;;;;;;14.05;8.80;;;;;;;;;;5385937;26;20405;-60
2024/04/16 03:43:49;;;;;;;13.73;8.57;;;;;;;;;;5385947;26;20395;-59
2024/04/16 03:46:15;;;;;;;13.60;8.50;;;;;;;;;;5385820;26;20370;-59
2024/04/16 03:48:41;;;;;;;13.60;8.90;;;;;;;;;;5384658;26;20016;-57
2024/04/16 03:51:07;;;;;;;13.70;8.88;;;;;;;;;;5385427;26;19988;-58
2024/04/16 03:53:33;;;;;;;13.52;8.40;;;;;;;;;;5386000;26;20004;-57
2024/04/16 03:56:00;;;;;;;13.55;8.45;;;;;;;;;;5386932;26;20003;-57
2024/04/16 03:58:29;;;;;;;14.57;9.68;;;;;;;;;;5386537;26;20004;-59
2024/04/16 04:01:05;;;;;;;13.50;8.43;;;;;;;;;;5385346;26;20003;-58
2024/04/16 04:03:31;;;;;;;13.18;7.78;;;;;;;;;;5383603;26;20000;-59
2024/04/16 04:05:57;;;;;;;13.43;8.40;;;;;;;;;;5385879;26;19996;-62
2024/04/16 04:08:23;;;;;;;14.55;8.60;;;;;;;;;;5385112;26;20063;-58
2024/04/16 04:10:49;;;;;;;13.50;8.30;;;;;;;;;;5385156;26;20058;-58
2024/04/16 04:13:15;;;;;;;13.40;8.10;;;;;;;;;;5382679;26;20004;-57
2024/04/16 04:15:41;;;;;;;13.10;7.80;;;;;;;;;;5418881;26;19995;-56
2024/04/16 04:18:07;;;;;;;17.50;10.35;;;;;;;;;;5420948;26;20083;-56
2024/04/16 04:20:33;;;;;;;13.18;7.88;;;;;;;;;;5421569;26;19988;-56
2024/04/16 04:22:59;;;;;;;13.40;8.10;;;;;;;;;;5391946;26;20330;-58
2024/04/16 04:25:25;;;;;;;13.43;8.23;;;;;;;;;;5385386;26;19992;-57
2024/04/16 04:27:51;;;;;;;14.30;10.05;;;;;;;;;;5385457;26;20001;-56
2024/04/16 04:30:17;;;;;;;18.17;14.27;;;;;;;;;;5396897;26;20010;-58
2024/04/16 04:32:50;;;;;;;20.52;18.63;;;;;;;;;;5420747;26;20351;-58
2024/04/16 04:35:16;;;;;;;22.58;20.58;;;;;;;;;;5421315;26;20003;-54
2024/04/16 04:37:41;;;;;;;24.15;22.15;;;;;;;;;;5420287;26;20348;-55
2024/04/16 04:40:08;;;;;;;26.38;24.23;;;;;;;;;;5421078;26;19999;-55
2024/04/16 04:42:34;;;;;;;27.25;24.90;;;;;;;;;;5420579;26;20453;-58
2024/04/16 04:45:00;;;;;;;25.38;23.17;;;;;;;;;;5420800;26;19999;-58
2024/04/16 04:47:26;;;;;;;27.08;24.88;;;;;;;;;;5408696;26;20010;-57
2024/04/16 04:49:52;;;;;;;24.85;22.75;;;;;;;;;;5419107;26;20003;-57
2024/04/16 04:52:18;;;;;;;25.52;23.23;;;;;;;;;;5418031;26;19997;-54
2024/04/16 04:54:43;;;;;;;23.42;21.33;;;;;;;;;;5418436;26;20003;-55
2024/04/16 04:57:09;;;;;;;21.65;19.75;;;;;;;;;;5419030;26;20068;-57
2024/04/16 04:59:35;;;;;;;22.15;20.05;;;;;;;;;;5420029;26;19995;-61
2024/04/16 05:02:02;;;;;;;22.25;20.30;;;;;;;;;;5419580;26;20014;-60
2024/04/16 05:04:28;;;;;;;21.48;19.58;;;;;;;;;;5419620;26;20080;-60
2024/04/16 05:06:54;;;;;;;20.58;18.67;;;;;;;;;;5420267;26;19992;-58
2024/04/16 05:09:20;;;;;;;20.08;18.17;;;;;;;;;;5419442;26;19999;-57
2024/04/16 05:11:46;;;;;;;20.80;18.90;;;;;;;;;;5387621;26;20004;-58
2024/04/16 05:14:12;;;;;;;19.75;17.95;;;;;;;;;;5418342;26;19999;-55
2024/04/16 05:16:38;;;;;;;19.23;17.27;;;;;;;;;;5420839;26;20040;-52
2024/04/16 05:19:04;;;;;;;19.80;17.90;;;;;;;;;;5421455;26;19996;-56
2024/04/16 05:21:30;;;;;;;18.83;17.02;;;;;;;;;;5420883;26;19995;-60
2024/04/16 05:23:56;;;;;;;18.48;16.67;;;;;;;;;;5419882;26;20010;-56
2024/04/16 05:26:22;;;;;;;16.80;15.10;;;;;;;;;;5420258;26;20513;-58
2024/04/16 05:28:49;;;;;;;16.40;14.70;;;;;;;;;;5389289;26;20126;-56
2024/04/16 05:31:15;;;;;;;18.58;16.67;;;;;;;;;;5422466;26;20064;-55
2024/04/16 05:33:41;;;;;;;19.40;17.33;;;;;;;;;;5421850;26;19999;-56
2024/04/16 05:36:07;;;;;;;17.30;15.50;;;;;;;;;;5421596;26;20003;-57
2024/04/16 05:38:34;;;;;;;18.45;16.48;;;;;;;;;;5422646;26;20069;-58
2024/04/16 05:41:00;;;;;;;16.75;14.95;;;;;;;;;;5421603;26;20008;-56
2024/04/16 05:43:26;;;;;;;17.00;15.07;;;;;;;;;;5419811;26;20081;-56
2024/04/16 05:45:52;;;;;;;16.08;14.38;;;;;;;;;;5419295;26;20011;-56
2024/04/16 05:48:18;;;;;;;16.83;15.13;;;;;;;;;;5421020;26;20007;-56
2024/04/16 05:50:44;;;;;;;16.55;13.60;;;;;;;;;;5421999;26;20015;-59
2024/04/16 05:53:10;;;;;;;16.38;14.68;;;;;;;;;;5390771;26;20002;-58
2024/04/16 05:55:36;;;;;;;15.20;13.40;;;;;;;;;;5421568;26;20290;-57
2024/04/16 05:58:02;;;;;;;15.50;13.80;;;;;;;;;;5420616;26;19995;-57
2024/04/16 06:00:28;;;;;;;15.60;13.80;;;;;;;;;;5419596;26;20042;-59
2024/04/16 06:02:54;;;;;;;15.20;13.20;;;;;;;;;;5418812;26;20110;-57
2024/04/16 06:05:20;;;;;;;15.20;13.55;;;;;;;;;;5422211;26;19999;-59
2024/04/16 06:07:46;;;;;;;15.40;13.43;;;;;;;;;;5422412;26;20121;-58
2024/04/16 06:10:12;;;;;;;14.75;11.98;;;;;;;;;;5422535;26;19996;-58
2024/04/16 06:12:38;;;;;;;14.70;12.07;;;;;;;;;;5390690;26;20061;-57
2024/04/16 06:15:04;;;;;;;15.95;11.98;;;;;;;;;;5421840;26;20025;-58
2024/04/16 06:17:30;;;;;;;14.90;11.52;;;;;;;;;;5422704;26;19996;-57
2024/04/16 06:19:56;;;;;;;14.20;10.40;;;;;;;;;;5421687;26;20043;-60
2024/04/16 06:22:22;;;;;;;14.40;9.88;;;;;;;;;;5422826;26;20465;-57
2024/04/16 06:24:48;;;;;;;18.13;11.23;;;;;;;;;;5422233;26;20000;-58
2024/04/16 06:27:14;;;;;;;16.95;11.40;;;;;;;;;;5422206;26;20006;-57
2024/04/16 06:29:40;;;;;;;14.68;10.50;;;;;;;;;;5422189;26;20007;-55
2024/04/16 06:32:06;;;;;;;14.88;11.00;;;;;;;;;;5421855;26;20477;-60
2024/04/16 06:34:32;;;;;;;14.00;9.90;;;;;;;;;;5421433;26;20018;-60
2024/04/16 06:36:58;;;;;;;15.25;10.70;;;;;;;;;;5421225;26;20060;-59
2024/04/16 06:39:24;;;;;;;15.27;12.00;;;;;;;;;;5422315;26;20086;-59
2024/04/16 06:41:50;;;;;;;14.50;11.30;;;;;;;;;;5422010;26;20010;-56
2024/04/16 06:44:16;;;;;;;15.55;12.80;;;;;;;;;;5421299;26;20007;-57
2024/04/16 06:46:42;;;;;;;16.30;14.52;;;;;;;;;;5421207;26;20002;-56
2024/04/16 06:49:08;;;;;;;25.95;23.85;;;;;;;;;;5421137;26;20041;-51
2024/04/16 06:51:34;;;;;;;27.95;25.65;;;;;;;;;;5420939;26;19999;-55
2024/04/16 06:54:00;;;;;;;35.45;32.55;;;;;;;;;;5421077;26;20045;-60
2024/04/16 06:56:26;;;;;;;35.85;33.05;;;;;;;;;;5420588;26;20413;-57
2024/04/16 06:58:52;;;;;;;38.08;35.17;;;;;;;;;;5421462;26;20011;-58
2024/04/16 07:01:18;;;;;;;37.70;34.90;;;;;;;;;;5420844;26;20012;-56
2024/04/16 07:03:44;;;;;;;39.03;36.13;;;;;;;;;;5388870;26;20685;-55
2024/04/16 07:06:10;;;;;;;39.58;36.58;;;;;;;;;;5419244;26;19995;-57
2024/04/16 07:08:36;;;;;;;39.92;36.92;;;;;;;;;;5420137;26;20019;-57
2024/04/16 07:11:02;;;;;;;42.80;39.70;;;;;;;;;;5420521;26;20058;-56
2024/04/16 07:13:28;;;;;;;45.22;42.03;;;;;;;;;;5419768;26;20667;-55
2024/04/16 07:15:54;;;;;;;47.80;44.42;;;;;;;;;;5419824;26;19999;-55
2024/04/16 07:18:20;;;;;;;43.90;40.80;;;;;;;;;;5419416;26;19995;-53
2024/04/16 07:20:47;;;;;;;41.92;39.03;;;;;;;;;;5416771;26;20072;-55
2024/04/16 07:23:13;;;;;;;38.42;35.72;;;;;;;;;;5415531;26;20552;-50
2024/04/16 07:25:43;;;;;;;32.03;29.70;;;;;;;;;;5412862;26;20007;-53
2024/04/16 07:28:09;;;;;;;30.73;28.45;;;;;;;;;;5408405;26;20033;-53
2024/04/16 07:30:35;;;;;;;29.77;27.45;;;;;;;;;;5376941;26;19991;-52
2024/04/16 07:33:02;;;;;;;30.67;28.38;;;;;;;;;;5408471;26;20132;-46
2024/04/16 07:35:29;;;;;;;30.17;27.88;;;;;;;;;;5408405;26;20019;-49
2024/04/16 07:37:55;;;;;;;33.03;30.63;;;;;;;;;;5411361;26;20011;-53
2024/04/16 07:40:21;;;;;;;30.15;27.95;;;;;;;;;;5412571;26;19992;-51
2024/04/16 07:42:47;;;;;;;30.95;28.65;;;;;;;;;;5412138;26;20014;-49
2024/04/16 07:45:13;;;;;;;30.30;28.00;;;;;;;;;;5411624;26;19999;-53
2024/04/16 07:47:39;;;;;;;30.02;27.73;;;;;;;;;;5412668;26;20000;-52
2024/04/16 07:50:05;;;;;;;29.50;27.20;;;;;;;;;;5411902;26;20064;-53
2024/04/16 07:52:31;;;;;;;28.63;26.42;;;;;;;;;;5412182;26;20064;-51
2024/04/16 07:54:57;;;;;;;29.55;27.30;;;;;;;;;;5411862;26;19995;-50
2024/04/16 07:57:23;;;;;;;31.13;28.80;;;;;;;;;;5411868;26;20060;-55
2024/04/16 07:59:50;;;;;;;36.63;33.80;;;;;;;;;;5411957;26;19991;-53
2024/04/16 08:02:16;;;;;;;29.67;27.48;;;;;;;;;;5411785;26;20336;-53
2024/04/16 08:04:42;;;;;;;29.65;27.45;;;;;;;;;;5380460;26;20003;-50
2024/04/16 08:07:08;;;;;;;25.90;23.80;;;;;;;;;;5412110;26;20028;-54
2024/04/16 08:09:34;;;;;;;26.05;23.95;;;;;;;;;;5411895;26;20076;-52
2024/04/16 08:12:00;;;;;;;24.08;22.08;;;;;;;;;;5411650;26;19991;-52
2024/04/16 08:14:26;;;;;;;24.70;22.70;;;;;;;;;;5411696;26;19991;-53
2024/04/16 08:16:52;;;;;;;23.80;21.80;;;;;;;;;;5411842;26;20341;-48
2024/04/16 08:19:18;;;;;;;23.48;21.58;;;;;;;;;;5411780;26;20039;-50
2024/04/16 08:21:44;;;;;;;25.00;23.00;;;;;;;;;;5412352;26;20591;-51
2024/04/16 08:24:10;;;;;;;25.23;23.23;;;;;;;;;;5411869;26;19995;-50
2024/04/16 08:26:36;;;;;;;24.60;22.60;;;;;;;;;;5411739;26;20178;-52
2024/04/16 08:29:02;;;;;;;25.65;23.65;;;;;;;;;;5411262;26;19996;-54
2024/04/16 08:31:29;;;;;;;26.65;24.55;;;;;;;;;;5411779;26;19996;-52
2024/04/16 08:33:55;;;;;;;26.33;24.23;;;;;;;;;;5411428;26;20001;-50
2024/04/16 08:36:21;;;;;;;27.25;25.15;;;;;;;;;;5379583;26;20545;-53
2024/04/16 08:38:47;;;;;;;26.45;24.35;;;;;;;;;;5411657;26;19988;-50
2024/04/16 08:41:13;;;;;;;22.50;20.60;;;;;;;;;;5411299;26;20013;-51
2024/04/16 08:43:40;;;;;;;22.10;20.20;;;;;;;;;;5411175;26;19996;-52
2024/04/16 08:46:08;;;;;;;22.67;20.77;;;;;;;;;;5412069;26;19995;-50
2024/04/16 08:48:39;;;;;;;22.27;20.38;;;;;;;;;;5411441;26;19991;-62
2024/04/16 08:51:05;;;;;;;22.65;20.75;;;;;;;;;;5411888;26;20005;-57
2024/04/16 08:53:33;;;;;;;24.95;22.95;;;;;;;;;;5411119;26;19991;-50
2024/04/16 08:55:59;;;;;;;24.13;22.13;;;;;;;;;;5379613;26;19995;-52
2024/04/16 08:58:25;;;;;;;23.40;21.42;;;;;;;;;;5410473;26;20068;-51
2024/04/16 09:00:52;;;;;;;23.33;21.40;;;;;;;;;;5410848;26;20638;-54
2024/04/16 09:03:18;;;;;;;23.73;21.73;;;;;;;;;;5410724;26;19996;-54
2024/04/16 09:05:45;;;;;;;23.48;21.48;;;;;;;;;;5410964;26;20003;-54
2024/04/16 09:08:11;;;;;;;23.00;21.10;;;;;;;;;;5411226;26;19996;-51
2024/04/16 09:10:39;;;;;;;23.38;21.38;;;;;;;;;;5410740;26;19999;-54
2024/04/16 09:13:11;;;;;;;24.30;22.30;;;;;;;;;;5409258;26;20175;-53
2024/04/16 09:15:39;;;;;;;23.48;21.48;;;;;;;;;;5410716;26;20109;-53
2024/04/16 09:18:05;;;;;;;24.45;22.45;;;;;;;;;;5411444;26;20011;-52
2024/04/16 09:20:31;;;;;;;26.00;23.90;;;;;;;;;;5410899;26;20011;-50
2024/04/16 09:22:57;;;;;;;25.38;23.27;;;;;;;;;;5410101;26;20052;-49
2024/04/16 09:25:25;;;;;;;25.63;23.52;;;;;;;;;;5410661;26;20008;-52
2024/04/16 09:27:51;;;;;;;25.75;23.65;;;;;;;;;;5410124;26;20015;-49
2024/04/16 09:30:17;;;;;;;24.60;22.60;;;;;;;;;;5410755;26;20121;-56
2024/04/16 09:32:47;;;;;;;25.58;23.48;;;;;;;;;;5411377;26;20010;-52
2024/04/16 09:35:19;;;;;;;26.42;24.33;;;;;;;;;;5410594;26;20307;-51
2024/04/16 09:37:45;;;;;;;26.67;24.58;;;;;;;;;;5380843;26;20000;-52
2024/04/16 09:40:13;;;;;;;28.50;26.30;;;;;;;;;;5410929;26;20018;-53
2024/04/16 09:42:39;;;;;;;26.85;24.75;;;;;;;;;;5411129;26;20006;-55
2024/04/16 09:45:06;;;;;;;27.13;24.95;;;;;;;;;;5409664;26;20060;-55
2024/04/16 09:47:32;;;;;;;26.77;24.67;;;;;;;;;;5378991;26;20007;-57
2024/04/16 09:49:58;;;;;;;26.42;24.33;;;;;;;;;;5410656;26;20076;-50
2024/04/16 09:52:25;;;;;;;27.30;25.13;;;;;;;;;;5411016;26;19996;-53
2024/04/16 09:54:52;;;;;;;26.90;24.80;;;;;;;;;;5410214;26;20033;-52
2024/04/16 09:57:23;;;;;;;27.00;24.90;;;;;;;;;;5409964;26;20331;-61
2024/04/16 09:59:51;;;;;;;27.15;25.05;;;;;;;;;;5409565;26;20306;-57
2024/04/16 10:02:17;;;;;;;26.67;24.58;;;;;;;;;;5410286;26;19992;-51
2024/04/16 10:04:43;;;;;;;27.80;25.60;;;;;;;;;;5410530;26;19991;-57
2024/04/16 10:07:09;;;;;;;27.52;25.33;;;;;;;;;;5410164;26;19992;-59
2024/04/16 10:09:35;;;;;;;27.27;25.13;;;;;;;;;;5395474;26;20011;-60
2024/04/16 10:12:01;;;;;;;27.40;25.20;;;;;;;;;;5375393;26;20138;-58
2024/04/16 10:14:29;;;;;;;26.40;24.30;;;;;;;;;;5374855;26;20462;-59
2024/04/16 10:16:55;;;;;;;25.85;23.75;;;;;;;;;;5374794;26;20105;-59
2024/04/16 10:19:21;;;;;;;24.52;22.52;;;;;;;;;;5374640;26;20008;-57
2024/04/16 10:21:48;;;;;;;24.45;22.45;;;;;;;;;;5375092;26;20435;-58
2024/04/16 10:24:17;;;;;;;24.52;22.52;;;;;;;;;;5374037;26;20023;-59
2024/04/16 10:26:43;;;;;;;;;;;;;;;;;;5374629;26;19996;-59
2024/04/16 10:29:27;;;;;;;23.70;21.70;;;;;;;;;;5373468;26;19994;-57
2024/04/16 10:31:54;;;;;;;25.67;23.58;;;;;;;;;;5374522;26;20011;-58
2024/04/16 10:34:20;;;;;;;26.00;23.90;;;;;;;;;;5374369;26;20069;-57
2024/04/16 10:36:46;;;;;;;26.45;24.35;;;;;;;;;;5374129;26;20004;-61
2024/04/16 10:39:13;;;;;;;26.33;24.23;;;;;;;;;;5373499;26;20381;-58
2024/04/16 10:41:50;;;;;;;25.83;23.73;;;;;;;;;;5372702;26;20005;-60
2024/04/16 10:44:17;;;;;;;26.40;24.20;;;;;;;;;;5374410;26;19992;-60
2024/04/16 10:46:43;;;;;;;24.60;22.60;;;;;;;;;;5373241;26;20346;-60
2024/04/16 10:49:09;;;;;;;24.55;22.55;;;;;;;;;;5372511;26;19997;-60
2024/04/16 10:51:35;;;;;;;23.92;21.92;;;;;;;;;;5371880;26;19996;-60
2024/04/16 10:54:08;;;;;;;24.85;22.75;;;;;;;;;;5372334;26;20078;-60
2024/04/16 10:56:37;;;;;;;24.10;22.10;;;;;;;;;;5373004;26;20008;-61
2024/04/16 10:59:06;;;;;;;24.00;21.92;;;;;;;;;;5373470;26;20434;-57
2024/04/16 11:01:33;;;;;;;22.40;20.50;;;;;;;;;;5373886;26;20086;-61
2024/04/16 11:04:08;;;;;;;22.77;20.80;;;;;;;;;;5373672;26;20020;-60
2024/04/16 11:06:34;;;;;;;22.10;20.20;;;;;;;;;;5374326;26;19996;-61
2024/04/16 11:09:02;;;;;;;22.50;20.50;;;;;;;;;;5374284;26;20007;-61
2024/04/16 11:11:28;;;;;;;21.70;19.77;;;;;;;;;;5374654;26;20010;-59
2024/04/16 11:13:54;;;;;;;22.40;20.45;;;;;;;;;;5376311;26;20002;-60
2024/04/16 11:16:21;;;;;;;22.02;20.13;;;;;;;;;;5376681;26;20016;-58
2024/04/16 11:18:47;;;;;;;22.30;20.40;;;;;;;;;;5376806;26;20033;-61
2024/04/16 11:21:13;;;;;;;20.70;18.90;;;;;;;;;;5376933;26;20501;-60
2024/04/16 11:23:39;;;;;;;20.33;18.52;;;;;;;;;;5376736;26;20327;-59
2024/04/16 11:26:05;;;;;;;19.17;17.38;;;;;;;;;;5391407;26;20007;-61
2024/04/16 11:28:32;;;;;;;18.10;16.35;;;;;;;;;;5427126;20;20014;-56
2024/04/16 11:30:59;;;;;;;17.00;15.30;;;;;;;;;;5447784;26;20039;-57
2024/04/16 11:33:26;;;;;;;17.15;15.20;;;;;;;;;;5448440;26;20645;-60
2024/04/16 11:35:53;;;;;;;15.27;13.27;;;;;;;;;;5451101;26;20018;-59
2024/04/16 11:38:19;;;;;;;14.88;12.52;;;;;;;;;;5450874;26;20018;-60
2024/04/16 11:40:46;;;;;;;15.35;12.40;;;;;;;;;;5450580;26;19995;-61
2024/04/16 11:43:13;;;;;;;14.73;12.07;;;;;;;;;;5450675;26;20071;-61
2024/04/16 11:45:39;;;;;;;15.00;12.13;;;;;;;;;;5450617;26;20010;-59
2024/04/16 11:48:06;;;;;;;14.70;12.13;;;;;;;;;;5450418;26;19995;-63
2024/04/16 11:50:32;;;;;;;14.80;12.25;;;;;;;;;;5451192;26;20240;-65
2024/04/16 11:52:58;;;;;;;14.60;11.63;;;;;;;;;;5468963;26;19999;-66
2024/04/16 11:55:24;;;;;;;14.57;11.48;;;;;;;;;;5448202;26;20009;-64
2024/04/16 11:57:50;;;;;;;14.45;10.63;;;;;;;;;;5448217;26;20010;-65
2024/04/16 12:00:16;;;;;;;13.80;9.32;;;;;;;;;;5459953;26;20007;-65
2024/04/16 12:02:42;;;;;;;13.65;8.90;;;;;;;;;;5450597;26;20010;-65
2024/04/16 12:05:08;;;;;;;13.57;8.68;;;;;;;;;;5450621;26;19991;-65
2024/04/16 12:07:33;;;;;;;13.57;8.63;;;;;;;;;;5451165;26;19999;-66
2024/04/16 12:09:59;;;;;;;13.35;8.07;;;;;;;;;;5448580;26;20010;-67
2024/04/16 12:12:26;;;;;;;13.43;8.40;;;;;;;;;;5448922;26;20059;-66
2024/04/16 12:14:52;;;;;;;14.45;8.65;;;;;;;;;;5449680;26;19990;-65
2024/04/16 12:17:17;;;;;;;13.70;8.65;;;;;;;;;;5483897;26;20108;-66
2024/04/16 12:19:43;;;;;;;13.57;8.48;;;;;;;;;;5467550;26;19999;-64
2024/04/16 12:22:10;;;;;;;14.07;8.10;;;;;;;;;;5450153;26;20069;-64
2024/04/16 12:24:36;;;;;;;13.27;7.85;;;;;;;;;;5449671;26;19995;-65
2024/04/16 12:27:02;;;;;;;13.27;7.82;;;;;;;;;;5450185;26;19999;-65
2024/04/16 12:29:28;;;;;;;13.68;8.50;;;;;;;;;;5450372;26;20003;-67
2024/04/16 12:31:54;;;;;;;13.10;7.78;;;;;;;;;;5450004;26;20025;-65
2024/04/16 12:34:20;;;;;;;13.50;8.40;;;;;;;;;;5450162;26;19991;-66
2024/04/16 12:36:46;;;;;;;13.20;7.90;;;;;;;;;;5450456;26;20010;-65
2024/04/16 12:39:12;;;;;;;13.43;8.07;;;;;;;;;;5449745;26;20026;-66
2024/04/16 12:41:38;;;;;;;13.70;7.82;;;;;;;;;;5446506;26;19994;-65
2024/04/16 12:44:04;;;;;;;13.43;8.15;;;;;;;;;;5447712;26;19991;-64
2024/04/16 12:46:30;;;;;;;13.38;8.18;;;;;;;;;;5449683;26;20014;-63
2024/04/16 12:48:57;;;;;;;14.95;9.45;;;;;;;;;;5449855;26;19991;-66
2024/04/16 12:51:23;;;;;;;13.18;7.72;;;;;;;;;;5448566;26;20019;-66
2024/04/16 12:53:49;;;;;;;12.65;7.38;;;;;;;;;;5449758;26;20010;-66
2024/04/16 12:56:15;;;;;;;12.50;7.28;;;;;;;;;;5450045;26;20648;-62
2024/04/16 12:58:42;;;;;;;12.95;7.57;;;;;;;;;;5449888;26;20070;-65
2024/04/16 13:01:09;;;;;;;14.20;8.57;;;;;;;;;;5450094;26;20009;-66
2024/04/16 13:03:34;;;;;;;13.38;7.95;;;;;;;;;;5450099;26;20456;-66
2024/04/16 13:06:00;;;;;;;13.32;8.02;;;;;;;;;;5448589;26;19999;-66
2024/04/16 13:08:26;;;;;;;13.43;8.10;;;;;;;;;;5448047;26;20407;-61
2024/04/16 13:10:54;;;;;;;13.40;8.10;;;;;;;;;;5450051;26;20050;-65
2024/04/16 13:13:20;;;;;;;13.27;7.93;;;;;;;;;;5449493;26;20010;-66
2024/04/16 13:15:46;;;;;;;13.40;8.10;;;;;;;;;;5464940;26;20002;-69
2024/04/16 13:18:12;;;;;;;13.45;8.18;;;;;;;;;;5485169;26;20002;-62
2024/04/16 13:20:38;;;;;;;13.68;8.80;;;;;;;;;;5485171;26;20001;-63
2024/04/16 13:23:05;;;;;;;13.18;7.78;;;;;;;;;;5484036;26;20333;-67
2024/04/16 13:25:31;;;;;;;13.40;8.10;;;;;;;;;;5485840;26;20405;-65
2024/04/16 13:27:57;;;;;;;13.25;7.90;;;;;;;;;;5485946;26;19994;-65
2024/04/16 13:30:23;;;;;;;13.57;8.35;;;;;;;;;;5485687;26;20415;-66
2024/04/16 13:32:49;;;;;;;13.35;7.95;;;;;;;;;;5485856;26;20130;-65
2024/04/16 13:35:15;;;;;;;13.32;8.15;;;;;;;;;;5483968;26;20480;-66
2024/04/16 13:37:41;;;;;;;13.45;8.40;;;;;;;;;;5468879;26;20050;-64
2024/04/16 13:40:08;;;;;;;13.52;8.57;;;;;;;;;;5449027;26;20136;-66
2024/04/16 13:42:34;;;;;;;13.20;7.88;;;;;;;;;;5447290;26;20067;-65
2024/04/16 13:45:00;;;;;;;12.82;7.50;;;;;;;;;;5449235;26;19998;-66
2024/04/16 13:47:26;;;;;;;12.85;7.55;;;;;;;;;;5448935;26;20341;-67
2024/04/16 13:49:53;;;;;;;13.52;8.40;;;;;;;;;;5448859;26;20499;-64
2024/04/16 13:52:19;;;;;;;13.55;8.55;;;;;;;;;;5448709;26;19994;-65
2024/04/16 13:54:45;;;;;;;13.63;8.85;;;;;;;;;;5448402;26;20459;-64
2024/04/16 13:57:11;;;;;;;13.77;9.25;;;;;;;;;;5448705;26;19999;-65
2024/04/16 13:59:37;;;;;;;13.70;9.07;;;;;;;;;;5448692;26;19995;-63
2024/04/16 14:02:03;;;;;;;13.75;9.10;;;;;;;;;;5449111;26;19995;-65
2024/04/16 14:04:29;;;;;;;13.93;9.70;;;;;;;;;;5448143;26;20001;-60
2024/04/16 14:06:56;;;;;;;13.95;9.88;;;;;;;;;;5448670;26;19990;-64
2024/04/16 14:09:24;;;;;;;13.90;9.50;;;;;;;;;;5448835;26;20223;-63
2024/04/16 14:11:50;;;;;;;13.85;9.43;;;;;;;;;;5449320;26;20037;-63
2024/04/16 14:14:16;;;;;;;13.90;9.50;;;;;;;;;;5449055;26;19998;-63
2024/04/16 14:16:42;;;;;;;13.75;9.27;;;;;;;;;;5448852;26;20220;-62